sensor_id;sensor_type;location;lat;lon;timestamp;pressure;altitude;pressure_sealevel;temperature;humidity
53868;BME280;41577;47.470;19.080;2023-03-26T00:00:04;99674.63;;;8.61;76.04
53868;BME280;41577;47.470;19.080;2023-03-26T00:00:24;99673.00;;;8.60;75.99
53868;BME280;41577;47.470;19.080;2023-03-26T00:00:37;99676.47;;;8.61;76.73
53868;BME280;41577;47.470;19.080;2023-03-26T00:00:50;99677.28;;;8.61;76.39
53868;BME280;41577;47.470;19.080;2023-03-26T00:01:03;99673.81;;;8.61;76.32
53868;BME280;41577;47.470;19.080;2023-03-26T00:01:19;99679.94;;;8.61;76.29
53868;BME280;41577;47.470;19.080;2023-03-26T00:01:32;99677.28;;;8.61;76.03
53868;BME280;41577;47.470;19.080;2023-03-26T00:01:46;99677.28;;;8.61;76.48
53868;BME280;41577;47.470;19.080;2023-03-26T00:01:59;99677.47;;;8.59;76.67
53868;BME280;41577;47.470;19.080;2023-03-26T00:02:13;99679.13;;;8.61;76.27
53868;BME280;41577;47.470;19.080;2023-03-26T00:02:26;99678.31;;;8.60;76.19
53868;BME280;41577;47.470;19.080;2023-03-26T00:02:39;99680.13;;;8.59;76.40
53868;BME280;41577;47.470;19.080;2023-03-26T00:02:52;99673.00;;;8.60;76.52
53868;BME280;41577;47.470;19.080;2023-03-26T00:03:04;99672.13;;;8.59;76.92
53868;BME280;41577;47.470;19.080;2023-03-26T00:03:16;99680.97;;;8.60;76.92
53868;BME280;41577;47.470;19.080;2023-03-26T00:03:31;99673.16;;;8.58;76.51
53868;BME280;41577;47.470;19.080;2023-03-26T00:03:46;99674.81;;;8.59;76.76
53868;BME280;41577;47.470;19.080;2023-03-26T00:03:59;99667.03;;;8.58;76.89
53868;BME280;41577;47.470;19.080;2023-03-26T00:04:13;99671.50;;;8.57;76.88
53868;BME280;41577;47.470;19.080;2023-03-26T00:04:26;99666.81;;;8.59;76.38
53868;BME280;41577;47.470;19.080;2023-03-26T00:04:40;99667.66;;;8.60;76.44
53868;BME280;41577;47.470;19.080;2023-03-26T00:04:57;99669.47;;;8.59;76.46
53868;BME280;41577;47.470;19.080;2023-03-26T00:05:10;99675.66;;;8.60;76.66
53868;BME280;41577;47.470;19.080;2023-03-26T00:05:22;99664.16;;;8.59;76.24
53868;BME280;41577;47.470;19.080;2023-03-26T00:05:35;99675.81;;;8.58;76.81
53868;BME280;41577;47.470;19.080;2023-03-26T00:05:49;99673.16;;;8.58;76.81
53868;BME280;41577;47.470;19.080;2023-03-26T00:06:15;99662.69;;;8.57;76.40
53868;BME280;41577;47.470;19.080;2023-03-26T00:06:31;99654.72;;;8.57;76.57
53868;BME280;41577;47.470;19.080;2023-03-26T00:06:44;99660.69;;;8.59;76.81
53868;BME280;41577;47.470;19.080;2023-03-26T00:06:58;99659.03;;;8.58;76.14
53868;BME280;41577;47.470;19.080;2023-03-26T00:07:10;99654.94;;;8.55;76.47
53868;BME280;41577;47.470;19.080;2023-03-26T00:07:23;99669.69;;;8.58;76.59
53868;BME280;41577;47.470;19.080;2023-03-26T00:07:39;99666.19;;;8.57;76.34
53868;BME280;41577;47.470;19.080;2023-03-26T00:07:54;99659.22;;;8.56;76.70
53868;BME280;41577;47.470;19.080;2023-03-26T00:08:08;99663.53;;;8.57;76.32
53868;BME280;41577;47.470;19.080;2023-03-26T00:08:21;99657.59;;;8.55;76.40
53868;BME280;41577;47.470;19.080;2023-03-26T00:08:37;99659.22;;;8.56;76.48
53868;BME280;41577;47.470;19.080;2023-03-26T00:08:54;99660.84;;;8.57;76.35
53868;BME280;41577;47.470;19.080;2023-03-26T00:09:09;99658.19;;;8.57;76.24
53868;BME280;41577;47.470;19.080;2023-03-26T00:09:25;99658.03;;;8.59;76.54
53868;BME280;41577;47.470;19.080;2023-03-26T00:09:40;99662.53;;;8.58;76.09
53868;BME280;41577;47.470;19.080;2023-03-26T00:09:53;99659.03;;;8.58;76.01
53868;BME280;41577;47.470;19.080;2023-03-26T00:10:11;99657.59;;;8.55;76.02
53868;BME280;41577;47.470;19.080;2023-03-26T00:10:24;99650.03;;;8.59;75.94
53868;BME280;41577;47.470;19.080;2023-03-26T00:10:37;99651.88;;;8.58;75.95
53868;BME280;41577;47.470;19.080;2023-03-26T00:10:51;99659.03;;;8.58;76.00
53868;BME280;41577;47.470;19.080;2023-03-26T00:11:04;99653.50;;;8.59;75.96
53868;BME280;41577;47.470;19.080;2023-03-26T00:11:19;99660.84;;;8.57;76.21
53868;BME280;41577;47.470;19.080;2023-03-26T00:11:32;99662.53;;;8.58;75.92
53868;BME280;41577;47.470;19.080;2023-03-26T00:11:47;99670.50;;;8.58;76.37
53868;BME280;41577;47.470;19.080;2023-03-26T00:12:00;99667.84;;;8.58;75.84
53868;BME280;41577;47.470;19.080;2023-03-26T00:12:16;99671.50;;;8.57;76.13
53868;BME280;41577;47.470;19.080;2023-03-26T00:12:30;99669.69;;;8.58;75.92
53868;BME280;41577;47.470;19.080;2023-03-26T00:12:43;99667.03;;;8.58;76.18
53868;BME280;41577;47.470;19.080;2023-03-26T00:12:56;99664.38;;;8.58;76.06
53868;BME280;41577;47.470;19.080;2023-03-26T00:13:16;99668.03;;;8.57;75.84
53868;BME280;41577;47.470;19.080;2023-03-26T00:13:29;99664.56;;;8.56;75.90
53868;BME280;41577;47.470;19.080;2023-03-26T00:13:42;99672.34;;;8.58;76.17
53868;BME280;41577;47.470;19.080;2023-03-26T00:13:56;99667.59;;;8.53;76.11
53868;BME280;41577;47.470;19.080;2023-03-26T00:14:11;99674.38;;;8.56;76.20
53868;BME280;41577;47.470;19.080;2023-03-26T00:14:25;99668.25;;;8.55;75.93
53868;BME280;41577;47.470;19.080;2023-03-26T00:14:38;99670.06;;;8.55;76.47
53868;BME280;41577;47.470;19.080;2023-03-26T00:14:51;99670.06;;;8.55;75.94
53868;BME280;41577;47.470;19.080;2023-03-26T00:15:05;99665.75;;;8.54;75.97
53868;BME280;41577;47.470;19.080;2023-03-26T00:15:19;99670.25;;;8.53;75.96
53868;BME280;41577;47.470;19.080;2023-03-26T00:15:33;99672.06;;;8.53;76.05
53868;BME280;41577;47.470;19.080;2023-03-26T00:15:48;99666.75;;;8.53;75.77
53868;BME280;41577;47.470;19.080;2023-03-26T00:16:01;99671.25;;;8.52;76.06
53868;BME280;41577;47.470;19.080;2023-03-26T00:16:17;99672.28;;;8.51;76.04
53868;BME280;41577;47.470;19.080;2023-03-26T00:16:30;99667.78;;;8.52;76.40
53868;BME280;41577;47.470;19.080;2023-03-26T00:16:44;99669.63;;;8.51;76.46
53868;BME280;41577;47.470;19.080;2023-03-26T00:16:57;99669.63;;;8.51;76.66
53868;BME280;41577;47.470;19.080;2023-03-26T00:17:10;99663.50;;;8.51;76.50
53868;BME280;41577;47.470;19.080;2023-03-26T00:17:22;99666.97;;;8.51;76.65
53868;BME280;41577;47.470;19.080;2023-03-26T00:17:37;99662.47;;;8.52;76.74
53868;BME280;41577;47.470;19.080;2023-03-26T00:17:49;99658.97;;;8.51;76.74
53868;BME280;41577;47.470;19.080;2023-03-26T00:18:02;99659.81;;;8.52;76.76
53868;BME280;41577;47.470;19.080;2023-03-26T00:18:17;99663.28;;;8.52;76.68
53868;BME280;41577;47.470;19.080;2023-03-26T00:18:30;99655.50;;;8.51;76.73
53868;BME280;41577;47.470;19.080;2023-03-26T00:18:43;99656.31;;;8.51;76.38
53868;BME280;41577;47.470;19.080;2023-03-26T00:18:55;99654.41;;;8.45;76.32
53868;BME280;41577;47.470;19.080;2023-03-26T00:19:09;99657.31;;;8.50;76.74
53868;BME280;41577;47.470;19.080;2023-03-26T00:19:22;99655.69;;;8.49;76.71
53868;BME280;41577;47.470;19.080;2023-03-26T00:19:35;99660.81;;;8.51;76.40
53868;BME280;41577;47.470;19.080;2023-03-26T00:19:48;99666.16;;;8.51;76.61
53868;BME280;41577;47.470;19.080;2023-03-26T00:20:02;99662.00;;;8.48;76.83
53868;BME280;41577;47.470;19.080;2023-03-26T00:20:15;99666.34;;;8.49;76.72
53868;BME280;41577;47.470;19.080;2023-03-26T00:20:29;99662.63;;;8.50;76.71
53868;BME280;41577;47.470;19.080;2023-03-26T00:20:42;99659.16;;;8.50;76.66
53868;BME280;41577;47.470;19.080;2023-03-26T00:20:55;99661.00;;;8.49;76.53
53868;BME280;41577;47.470;19.080;2023-03-26T00:21:09;99656.50;;;8.50;76.35
53868;BME280;41577;47.470;19.080;2023-03-26T00:21:27;99662.00;;;8.48;76.26
53868;BME280;41577;47.470;19.080;2023-03-26T00:21:40;99659.97;;;8.50;76.03
53868;BME280;41577;47.470;19.080;2023-03-26T00:21:54;99663.66;;;8.49;76.28
53868;BME280;41577;47.470;19.080;2023-03-26T00:22:07;99655.69;;;8.49;76.29
53868;BME280;41577;47.470;19.080;2023-03-26T00:22:20;99662.63;;;8.50;76.36
53868;BME280;41577;47.470;19.080;2023-03-26T00:22:32;99656.69;;;8.48;76.66
53868;BME280;41577;47.470;19.080;2023-03-26T00:22:47;99663.66;;;8.49;76.20
53868;BME280;41577;47.470;19.080;2023-03-26T00:22:59;99660.19;;;8.49;76.49
53868;BME280;41577;47.470;19.080;2023-03-26T00:23:12;99657.31;;;8.50;76.77
53868;BME280;41577;47.470;19.080;2023-03-26T00:23:24;99661.00;;;8.49;76.45
53868;BME280;41577;47.470;19.080;2023-03-26T00:23:37;99658.34;;;8.49;76.12
53868;BME280;41577;47.470;19.080;2023-03-26T00:23:55;99660.19;;;8.49;76.28
53868;BME280;41577;47.470;19.080;2023-03-26T00:24:09;99660.19;;;8.49;76.27
53868;BME280;41577;47.470;19.080;2023-03-26T00:24:22;99659.34;;;8.48;76.71
53868;BME280;41577;47.470;19.080;2023-03-26T00:24:35;99655.69;;;8.49;76.19
53868;BME280;41577;47.470;19.080;2023-03-26T00:24:49;99667.31;;;8.48;76.50
53868;BME280;41577;47.470;19.080;2023-03-26T00:25:03;99660.19;;;8.49;76.45
53868;BME280;41577;47.470;19.080;2023-03-26T00:25:16;99659.16;;;8.50;76.44
53868;BME280;41577;47.470;19.080;2023-03-26T00:25:31;99667.31;;;8.48;76.47
53868;BME280;41577;47.470;19.080;2023-03-26T00:25:45;99664.47;;;8.50;76.18
53868;BME280;41577;47.470;19.080;2023-03-26T00:26:00;99663.66;;;8.49;76.19
53868;BME280;41577;47.470;19.080;2023-03-26T00:26:16;99660.19;;;8.49;76.41
53868;BME280;41577;47.470;19.080;2023-03-26T00:26:28;99667.31;;;8.48;76.39
53868;BME280;41577;47.470;19.080;2023-03-26T00:26:42;99673.50;;;8.49;76.14
53868;BME280;41577;47.470;19.080;2023-03-26T00:26:56;99659.34;;;8.48;75.82
53868;BME280;41577;47.470;19.080;2023-03-26T00:27:08;99665.50;;;8.49;76.12
53868;BME280;41577;47.470;19.080;2023-03-26T00:27:20;99654.88;;;8.49;76.30
53868;BME280;41577;47.470;19.080;2023-03-26T00:27:33;99662.41;;;8.45;76.20
53868;BME280;41577;47.470;19.080;2023-03-26T00:27:49;99667.31;;;8.48;76.33
53868;BME280;41577;47.470;19.080;2023-03-26T00:28:03;99665.50;;;8.49;76.16
53868;BME280;41577;47.470;19.080;2023-03-26T00:28:16;99665.69;;;8.47;76.06
53868;BME280;41577;47.470;19.080;2023-03-26T00:28:28;99663.03;;;8.47;76.50
53868;BME280;41577;47.470;19.080;2023-03-26T00:28:41;99667.53;;;8.47;76.21
53868;BME280;41577;47.470;19.080;2023-03-26T00:28:56;99661.19;;;8.48;76.38
53868;BME280;41577;47.470;19.080;2023-03-26T00:29:13;99664.88;;;8.47;75.96
53868;BME280;41577;47.470;19.080;2023-03-26T00:29:28;99665.50;;;8.49;76.59
53868;BME280;41577;47.470;19.080;2023-03-26T00:29:42;99664.66;;;8.48;76.04
53868;BME280;41577;47.470;19.080;2023-03-26T00:29:55;99660.19;;;8.49;76.45
53868;BME280;41577;47.470;19.080;2023-03-26T00:30:09;99664.66;;;8.48;76.05
53868;BME280;41577;47.470;19.080;2023-03-26T00:30:21;99667.97;;;8.50;76.42
53868;BME280;41577;47.470;19.080;2023-03-26T00:30:35;99658.34;;;8.49;76.14
53868;BME280;41577;47.470;19.080;2023-03-26T00:30:48;99659.16;;;8.50;75.69
53868;BME280;41577;47.470;19.080;2023-03-26T00:31:02;99669.00;;;8.49;75.99
53868;BME280;41577;47.470;19.080;2023-03-26T00:31:16;99667.16;;;8.50;76.23
53868;BME280;41577;47.470;19.080;2023-03-26T00:31:28;99669.81;;;8.50;76.25
53868;BME280;41577;47.470;19.080;2023-03-26T00:31:45;99672.47;;;8.50;76.03
53868;BME280;41577;47.470;19.080;2023-03-26T00:31:58;99662.63;;;8.50;76.25
53868;BME280;41577;47.470;19.080;2023-03-26T00:32:10;99665.31;;;8.50;75.91
53868;BME280;41577;47.470;19.080;2023-03-26T00:32:22;99665.50;;;8.49;76.20
53868;BME280;41577;47.470;19.080;2023-03-26T00:32:35;99664.47;;;8.50;75.90
53868;BME280;41577;47.470;19.080;2023-03-26T00:32:48;99656.06;;;8.46;75.94
53868;BME280;41577;47.470;19.080;2023-03-26T00:33:06;99663.03;;;8.47;76.31
53868;BME280;41577;47.470;19.080;2023-03-26T00:33:19;99651.56;;;8.47;76.28
53868;BME280;41577;47.470;19.080;2023-03-26T00:33:31;99663.84;;;8.48;76.30
53868;BME280;41577;47.470;19.080;2023-03-26T00:33:44;99661.00;;;8.49;75.80
53868;BME280;41577;47.470;19.080;2023-03-26T00:33:57;99663.66;;;8.49;76.30
53868;BME280;41577;47.470;19.080;2023-03-26T00:34:14;99661.19;;;8.48;76.36
53868;BME280;41577;47.470;19.080;2023-03-26T00:34:27;99655.88;;;8.48;76.42
53868;BME280;41577;47.470;19.080;2023-03-26T00:34:40;99654.41;;;8.45;76.01
53868;BME280;41577;47.470;19.080;2023-03-26T00:34:52;99658.34;;;8.49;75.88
53868;BME280;41577;47.470;19.080;2023-03-26T00:35:05;99663.84;;;8.48;76.40
53868;BME280;41577;47.470;19.080;2023-03-26T00:35:19;99657.72;;;8.47;76.07
53868;BME280;41577;47.470;19.080;2023-03-26T00:35:34;99660.38;;;8.47;76.27
53868;BME280;41577;47.470;19.080;2023-03-26T00:35:51;99658.75;;;8.46;76.22
53868;BME280;41577;47.470;19.080;2023-03-26T00:36:06;99654.88;;;8.49;76.42
53868;BME280;41577;47.470;19.080;2023-03-26T00:36:22;99657.72;;;8.47;76.56
53868;BME280;41577;47.470;19.080;2023-03-26T00:36:35;99661.19;;;8.48;76.19
53868;BME280;41577;47.470;19.080;2023-03-26T00:36:48;99663.03;;;8.47;76.38
53868;BME280;41577;47.470;19.080;2023-03-26T00:37:03;99661.41;;;8.46;76.09
53868;BME280;41577;47.470;19.080;2023-03-26T00:37:15;99665.69;;;8.47;76.30
53868;BME280;41577;47.470;19.080;2023-03-26T00:37:29;99655.88;;;8.48;76.01
53868;BME280;41577;47.470;19.080;2023-03-26T00:37:41;99659.34;;;8.48;76.18
53868;BME280;41577;47.470;19.080;2023-03-26T00:37:57;99662.22;;;8.47;76.48
53868;BME280;41577;47.470;19.080;2023-03-26T00:38:10;99662.00;;;8.48;76.19
53868;BME280;41577;47.470;19.080;2023-03-26T00:38:28;99655.88;;;8.48;76.17
53868;BME280;41577;47.470;19.080;2023-03-26T00:38:42;99652.56;;;8.46;75.89
53868;BME280;41577;47.470;19.080;2023-03-26T00:38:55;99662.22;;;8.47;75.95
53868;BME280;41577;47.470;19.080;2023-03-26T00:39:11;99654.22;;;8.47;76.22
53868;BME280;41577;47.470;19.080;2023-03-26T00:39:24;99658.75;;;8.46;75.91
53868;BME280;41577;47.470;19.080;2023-03-26T00:39:36;99656.06;;;8.46;75.84
53868;BME280;41577;47.470;19.080;2023-03-26T00:39:49;99649.53;;;8.49;76.37
53868;BME280;41577;47.470;19.080;2023-03-26T00:40:12;99666.34;;;8.49;76.16
53868;BME280;41577;47.470;19.080;2023-03-26T00:40:25;99657.53;;;8.49;76.12
53868;BME280;41577;47.470;19.080;2023-03-26T00:40:39;99658.53;;;8.48;75.77
53868;BME280;41577;47.470;19.080;2023-03-26T00:40:59;99658.75;;;8.46;75.73
53868;BME280;41577;47.470;19.080;2023-03-26T00:41:15;99656.91;;;8.47;75.80
53868;BME280;41577;47.470;19.080;2023-03-26T00:41:27;99656.69;;;8.48;76.17
53868;BME280;41577;47.470;19.080;2023-03-26T00:41:42;99655.88;;;8.48;75.83
53868;BME280;41577;47.470;19.080;2023-03-26T00:41:55;99661.19;;;8.48;76.17
53868;BME280;41577;47.470;19.080;2023-03-26T00:42:08;99651.75;;;8.45;75.88
53868;BME280;41577;47.470;19.080;2023-03-26T00:42:20;99654.88;;;8.49;76.11
53868;BME280;41577;47.470;19.080;2023-03-26T00:42:33;99657.53;;;8.49;75.78
53868;BME280;41577;47.470;19.080;2023-03-26T00:42:45;99654.88;;;8.49;75.69
53868;BME280;41577;47.470;19.080;2023-03-26T00:42:57;99657.72;;;8.47;76.08
53868;BME280;41577;47.470;19.080;2023-03-26T00:43:11;99651.38;;;8.48;75.59
53868;BME280;41577;47.470;19.080;2023-03-26T00:43:24;99653.03;;;8.49;75.77
53868;BME280;41577;47.470;19.080;2023-03-26T00:43:36;99653.03;;;8.49;76.02
53868;BME280;41577;47.470;19.080;2023-03-26T00:43:51;99655.06;;;8.47;75.85
53868;BME280;41577;47.470;19.080;2023-03-26T00:44:04;99651.38;;;8.48;76.04
53868;BME280;41577;47.470;19.080;2023-03-26T00:44:17;99653.03;;;8.49;75.49
53868;BME280;41577;47.470;19.080;2023-03-26T00:44:29;99653.03;;;8.49;75.40
53868;BME280;41577;47.470;19.080;2023-03-26T00:44:44;99643.38;;;8.48;75.60
53868;BME280;41577;47.470;19.080;2023-03-26T00:44:59;99656.91;;;8.47;75.97
53868;BME280;41577;47.470;19.080;2023-03-26T00:45:16;99648.09;;;8.46;75.90
53868;BME280;41577;47.470;19.080;2023-03-26T00:45:30;99653.19;;;8.48;75.78
53868;BME280;41577;47.470;19.080;2023-03-26T00:45:44;99653.41;;;8.46;75.40
53868;BME280;41577;47.470;19.080;2023-03-26T00:45:58;99658.75;;;8.46;75.37
53868;BME280;41577;47.470;19.080;2023-03-26T00:46:11;99656.06;;;8.46;75.79
53868;BME280;41577;47.470;19.080;2023-03-26T00:46:24;99655.88;;;8.48;75.62
53868;BME280;41577;47.470;19.080;2023-03-26T00:46:38;99657.88;;;8.46;75.65
53868;BME280;41577;47.470;19.080;2023-03-26T00:46:54;99655.22;;;8.46;75.45
53868;BME280;41577;47.470;19.080;2023-03-26T00:47:12;99649.91;;;8.46;75.91
53868;BME280;41577;47.470;19.080;2023-03-26T00:47:25;99650.75;;;8.46;75.70
53868;BME280;41577;47.470;19.080;2023-03-26T00:47:38;99650.75;;;8.46;75.92
53868;BME280;41577;47.470;19.080;2023-03-26T00:47:53;99647.25;;;8.46;75.79
53868;BME280;41577;47.470;19.080;2023-03-26T00:48:07;99648.91;;;8.47;75.49
53868;BME280;41577;47.470;19.080;2023-03-26T00:48:19;99652.56;;;8.46;75.87
53868;BME280;41577;47.470;19.080;2023-03-26T00:48:46;99660.75;;;8.44;75.42
53868;BME280;41577;47.470;19.080;2023-03-26T00:49:01;99658.28;;;8.43;75.87
53868;BME280;41577;47.470;19.080;2023-03-26T00:49:13;99659.72;;;8.45;75.67
53868;BME280;41577;47.470;19.080;2023-03-26T00:49:25;99654.41;;;8.45;75.71
53868;BME280;41577;47.470;19.080;2023-03-26T00:49:38;99645.63;;;8.45;76.09
53868;BME280;41577;47.470;19.080;2023-03-26T00:49:52;99651.75;;;8.45;75.92
53868;BME280;41577;47.470;19.080;2023-03-26T00:50:07;99647.47;;;8.44;75.94
53868;BME280;41577;47.470;19.080;2023-03-26T00:50:22;99650.94;;;8.45;75.56
53868;BME280;41577;47.470;19.080;2023-03-26T00:50:37;99643.94;;;8.44;75.89
53868;BME280;41577;47.470;19.080;2023-03-26T00:50:49;99642.31;;;8.43;75.67
53868;BME280;41577;47.470;19.080;2023-03-26T00:51:04;99647.63;;;8.43;75.59
53868;BME280;41577;47.470;19.080;2023-03-26T00:51:20;99650.31;;;8.43;75.66
53868;BME280;41577;47.470;19.080;2023-03-26T00:51:33;99653.78;;;8.43;76.07
53868;BME280;41577;47.470;19.080;2023-03-26T00:51:50;99644.97;;;8.43;75.94
53868;BME280;41577;47.470;19.080;2023-03-26T00:52:05;99647.47;;;8.44;75.97
53868;BME280;41577;47.470;19.080;2023-03-26T00:52:19;99656.25;;;8.45;75.91
53868;BME280;41577;47.470;19.080;2023-03-26T00:52:31;99651.75;;;8.45;75.40
53868;BME280;41577;47.470;19.080;2023-03-26T00:52:48;99652.56;;;8.46;76.21
53868;BME280;41577;47.470;19.080;2023-03-26T00:53:01;99640.28;;;8.45;76.00
53868;BME280;41577;47.470;19.080;2023-03-26T00:53:15;99645.63;;;8.45;75.64
53868;BME280;41577;47.470;19.080;2023-03-26T00:53:29;99649.91;;;8.46;76.21
53868;BME280;41577;47.470;19.080;2023-03-26T00:53:41;99640.28;;;8.45;75.86
53868;BME280;41577;47.470;19.080;2023-03-26T00:53:55;99650.75;;;8.46;75.92
53868;BME280;41577;47.470;19.080;2023-03-26T00:54:08;99644.81;;;8.44;75.43
53868;BME280;41577;47.470;19.080;2023-03-26T00:54:21;99655.22;;;8.46;76.03
53868;BME280;41577;47.470;19.080;2023-03-26T00:54:36;99650.13;;;8.44;75.74
53868;BME280;41577;47.470;19.080;2023-03-26T00:54:50;99644.81;;;8.44;75.56
53868;BME280;41577;47.470;19.080;2023-03-26T00:55:04;99640.28;;;8.45;75.73
53868;BME280;41577;47.470;19.080;2023-03-26T00:55:16;99645.78;;;8.43;75.60
53868;BME280;41577;47.470;19.080;2023-03-26T00:55:31;99639.66;;;8.43;75.85
53868;BME280;41577;47.470;19.080;2023-03-26T00:55:46;99644.97;;;8.43;75.92
53868;BME280;41577;47.470;19.080;2023-03-26T00:55:59;99639.84;;;8.41;75.76
53868;BME280;41577;47.470;19.080;2023-03-26T00:56:11;99640.69;;;8.42;75.86
53868;BME280;41577;47.470;19.080;2023-03-26T00:56:25;99643.34;;;8.42;75.85
53868;BME280;41577;47.470;19.080;2023-03-26T00:56:42;99645.78;;;8.43;75.89
53868;BME280;41577;47.470;19.080;2023-03-26T00:56:56;99638.84;;;8.42;75.71
53868;BME280;41577;47.470;19.080;2023-03-26T00:57:15;99638.84;;;8.42;75.91
53868;BME280;41577;47.470;19.080;2023-03-26T00:57:46;99638.84;;;8.42;75.85
53868;BME280;41577;47.470;19.080;2023-03-26T00:57:59;99642.31;;;8.43;75.79
53868;BME280;41577;47.470;19.080;2023-03-26T00:58:17;99644.97;;;8.43;76.12
53868;BME280;41577;47.470;19.080;2023-03-26T00:58:30;99641.50;;;8.42;75.67
53868;BME280;41577;47.470;19.080;2023-03-26T00:58:43;99642.69;;;8.40;75.71
53868;BME280;41577;47.470;19.080;2023-03-26T00:58:56;99644.97;;;8.43;75.67
53868;BME280;41577;47.470;19.080;2023-03-26T00:59:09;99638.19;;;8.40;75.68
53868;BME280;41577;47.470;19.080;2023-03-26T00:59:22;99639.66;;;8.43;75.92
53868;BME280;41577;47.470;19.080;2023-03-26T00:59:36;99635.16;;;8.43;75.83
53868;BME280;41577;47.470;19.080;2023-03-26T00:59:48;99634.34;;;8.43;75.82
53868;BME280;41577;47.470;19.080;2023-03-26T01:00:01;99633.53;;;8.42;76.17
53868;BME280;41577;47.470;19.080;2023-03-26T01:00:17;99634.50;;;8.41;75.92
53868;BME280;41577;47.470;19.080;2023-03-26T01:00:43;99635.38;;;8.42;75.85
53868;BME280;41577;47.470;19.080;2023-03-26T01:01:00;99632.88;;;8.40;75.99
53868;BME280;41577;47.470;19.080;2023-03-26T01:01:14;99632.88;;;8.40;75.88
53868;BME280;41577;47.470;19.080;2023-03-26T01:01:28;99629.38;;;8.40;75.86
53868;BME280;41577;47.470;19.080;2023-03-26T01:01:42;99639.16;;;8.39;76.00
53868;BME280;41577;47.470;19.080;2023-03-26T01:01:55;99636.50;;;8.39;76.01
53868;BME280;41577;47.470;19.080;2023-03-26T01:02:10;99637.53;;;8.38;76.23
53868;BME280;41577;47.470;19.080;2023-03-26T01:02:25;99633.03;;;8.38;76.10
53868;BME280;41577;47.470;19.080;2023-03-26T01:02:46;99637.53;;;8.38;76.38
53868;BME280;41577;47.470;19.080;2023-03-26T01:03:02;99633.03;;;8.38;76.36
53868;BME280;41577;47.470;19.080;2023-03-26T01:03:18;99626.25;;;8.36;76.50
53868;BME280;41577;47.470;19.080;2023-03-26T01:03:42;99633.25;;;8.37;76.21
53868;BME280;41577;47.470;19.080;2023-03-26T01:04:27;99628.91;;;8.36;76.55
53868;BME280;41577;47.470;19.080;2023-03-26T01:04:43;99629.94;;;8.35;76.68
53868;BME280;41577;47.470;19.080;2023-03-26T01:04:58;99622.97;;;8.34;77.13
53868;BME280;41577;47.470;19.080;2023-03-26T01:05:40;99631.13;;;8.32;77.01
53868;BME280;41577;47.470;19.080;2023-03-26T01:05:57;99631.13;;;8.32;77.05
53868;BME280;41577;47.470;19.080;2023-03-26T01:06:11;99638.09;;;8.33;76.84
53868;BME280;41577;47.470;19.080;2023-03-26T01:06:27;99640.94;;;8.32;76.92
53868;BME280;41577;47.470;19.080;2023-03-26T01:06:45;99634.63;;;8.33;76.57
53868;BME280;41577;47.470;19.080;2023-03-26T01:07:01;99631.13;;;8.32;77.29
53868;BME280;41577;47.470;19.080;2023-03-26T01:07:16;99632.97;;;8.32;77.23
53868;BME280;41577;47.470;19.080;2023-03-26T01:07:29;99627.66;;;8.32;77.09
53868;BME280;41577;47.470;19.080;2023-03-26T01:07:43;99632.16;;;8.31;77.30
53868;BME280;41577;47.470;19.080;2023-03-26T01:07:56;99628.03;;;8.29;77.40
53868;BME280;41577;47.470;19.080;2023-03-26T01:08:18;99636.84;;;8.29;76.79
53868;BME280;41577;47.470;19.080;2023-03-26T01:08:37;99631.50;;;8.29;77.40
53868;BME280;41577;47.470;19.080;2023-03-26T01:08:54;99636.03;;;8.29;77.27
53868;BME280;41577;47.470;19.080;2023-03-26T01:09:13;99633.53;;;8.27;77.08
53868;BME280;41577;47.470;19.080;2023-03-26T01:09:31;99630.88;;;8.27;77.36
53868;BME280;41577;47.470;19.080;2023-03-26T01:09:48;99631.50;;;8.29;77.00
53868;BME280;41577;47.470;19.080;2023-03-26T01:10:01;99629.66;;;8.30;76.85
53868;BME280;41577;47.470;19.080;2023-03-26T01:10:14;99630.69;;;8.29;77.07
53868;BME280;41577;47.470;19.080;2023-03-26T01:10:27;99631.50;;;8.29;77.34
53868;BME280;41577;47.470;19.080;2023-03-26T01:10:40;99629.03;;;8.28;77.23
53868;BME280;41577;47.470;19.080;2023-03-26T01:10:54;99624.56;;;8.28;77.17
53868;BME280;41577;47.470;19.080;2023-03-26T01:11:09;99625.56;;;8.27;77.48
53868;BME280;41577;47.470;19.080;2023-03-26T01:11:26;99634.56;;;8.26;77.27
53868;BME280;41577;47.470;19.080;2023-03-26T01:11:41;99635.38;;;8.27;77.36
53868;BME280;41577;47.470;19.080;2023-03-26T01:12:00;99624.91;;;8.25;77.23
53868;BME280;41577;47.470;19.080;2023-03-26T01:12:16;99628.59;;;8.24;77.67
53868;BME280;41577;47.470;19.080;2023-03-26T01:12:30;99619.19;;;8.22;77.73
53868;BME280;41577;47.470;19.080;2023-03-26T01:12:46;99626.13;;;8.23;77.78
53868;BME280;41577;47.470;19.080;2023-03-26T01:12:58;99625.13;;;8.24;77.88
53868;BME280;41577;47.470;19.080;2023-03-26T01:13:10;99629.44;;;8.25;77.99
53868;BME280;41577;47.470;19.080;2023-03-26T01:13:27;99623.28;;;8.24;78.06
53868;BME280;41577;47.470;19.080;2023-03-26T01:13:44;99625.94;;;8.24;77.54
53868;BME280;41577;47.470;19.080;2023-03-26T01:14:11;99634.09;;;8.23;77.82
53868;BME280;41577;47.470;19.080;2023-03-26T01:14:26;99628.78;;;8.23;77.53
53868;BME280;41577;47.470;19.080;2023-03-26T01:14:40;99635.78;;;8.24;77.84
53868;BME280;41577;47.470;19.080;2023-03-26T01:14:58;99633.13;;;8.24;78.00
53868;BME280;41577;47.470;19.080;2023-03-26T01:15:12;99634.09;;;8.23;77.96
53868;BME280;41577;47.470;19.080;2023-03-26T01:15:25;99627.34;;;8.20;77.51
53868;BME280;41577;47.470;19.080;2023-03-26T01:15:38;99634.94;;;8.23;77.58
53868;BME280;41577;47.470;19.080;2023-03-26T01:15:53;99629.59;;;8.23;77.80
53868;BME280;41577;47.470;19.080;2023-03-26T01:16:16;99630.25;;;8.25;77.77
53868;BME280;41577;47.470;19.080;2023-03-26T01:16:40;99631.28;;;8.24;77.75
53868;BME280;41577;47.470;19.080;2023-03-26T01:16:56;99625.31;;;8.22;77.81
53868;BME280;41577;47.470;19.080;2023-03-26T01:17:10;99633.75;;;8.26;77.39
53868;BME280;41577;47.470;19.080;2023-03-26T01:17:23;99638.22;;;8.25;77.28
53868;BME280;41577;47.470;19.080;2023-03-26T01:17:37;99632.91;;;8.25;77.72